createdAt,value
2018-07-17T00:00:00.322Z,37.70
2018-07-17T00:01:00.564Z,38.28
2018-07-17T00:02:00.805Z,43.63
2018-07-17T00:03:01.049Z,40.19
2018-07-17T00:04:01.290Z,44.48
2018-07-17T00:05:01.531Z,40.55
2018-07-17T00:06:01.772Z,39.98
2018-07-17T00:07:02.014Z,28.02
2018-07-17T00:08:02.255Z,28.22
2018-07-17T00:09:02.500Z,29.17
2018-07-17T00:10:02.741Z,28.98
2018-07-17T00:11:02.981Z,16.93
2018-07-17T00:12:03.224Z,20.95
2018-07-17T00:13:03.463Z,19.60
2018-07-17T00:14:03.705Z,17.21
2018-07-17T00:15:03.948Z,13.30
2018-07-17T00:16:04.188Z,15.59
2018-07-17T00:17:04.430Z,15.41
2018-07-17T00:18:04.672Z,18.18
2018-07-17T00:19:04.914Z,22.97
2018-07-17T00:20:05.157Z,23.35
2018-07-17T00:21:05.397Z,29.47
2018-07-17T00:22:05.637Z,25.93
2018-07-17T00:23:05.879Z,40.09
2018-07-17T00:24:06.120Z,33.69
2018-07-17T00:25:06.362Z,28.13
2018-07-17T00:26:06.604Z,29.95
2018-07-17T00:27:06.847Z,32.73
2018-07-17T00:28:07.088Z,32.25
2018-07-17T00:29:07.329Z,35.41
2018-07-17T00:30:07.571Z,33.59
2018-07-17T00:31:07.813Z,31.10
2018-07-17T00:32:08.052Z,29.74
2018-07-17T00:33:08.294Z,27.56
2018-07-17T00:34:08.536Z,27.83
2018-07-17T00:35:08.783Z,23.33
2018-07-17T00:36:09.020Z,23.14
2018-07-17T00:37:09.260Z,17.12
2018-07-17T00:38:09.502Z,14.54
2018-07-17T00:39:09.744Z,13.10
2018-07-17T00:40:09.987Z,11.87
2018-07-17T00:41:10.228Z,13.48
2018-07-17T00:42:10.471Z,15.69
2018-07-17T00:43:10.713Z,18.55
2018-07-17T00:44:10.961Z,21.04
2018-07-17T00:45:11.196Z,22.09
2018-07-17T00:46:11.438Z,24.49
2018-07-17T00:47:11.680Z,25.73
2018-07-17T00:48:11.923Z,26.01
2018-07-17T00:49:12.163Z,26.11
2018-07-17T00:50:12.403Z,25.73
2018-07-17T00:51:12.644Z,28.22
2018-07-17T00:52:12.893Z,27.93
2018-07-17T00:53:13.127Z,28.79
2018-07-17T00:54:13.369Z,30.72
2018-07-17T00:55:13.610Z,34.05
2018-07-17T00:56:13.852Z,28.02
2018-07-17T00:57:14.093Z,29.84
2018-07-17T00:58:14.336Z,34.91
2018-07-17T00:59:14.582Z,34.05
2018-07-17T01:00:14.820Z,34.72
2018-07-17T01:01:15.060Z,35.37
2018-07-17T01:02:15.299Z,33.27
2018-07-17T01:03:15.541Z,38.71
2018-07-17T01:04:15.782Z,33.46
2018-07-17T01:05:16.023Z,22.75
2018-07-17T01:06:16.268Z,20.36
2018-07-17T01:07:16.551Z,30.02
2018-07-17T01:08:16.747Z,28.39
2018-07-17T01:09:16.987Z,23.61
2018-07-17T01:10:17.227Z,31.92
2018-07-17T01:11:17.469Z,25.42
2018-07-17T01:12:17.708Z,4.49
2018-07-17T01:13:17.949Z,3.25
2018-07-17T01:14:18.191Z,3.25
2018-07-17T01:15:18.433Z,3.53
2018-07-17T01:16:18.673Z,4.87
2018-07-17T01:17:18.913Z,7.54
2018-07-17T01:18:19.154Z,8.79
2018-07-17T01:19:19.395Z,8.69
2018-07-17T01:20:19.635Z,8.22
2018-07-17T01:21:19.877Z,6.68
2018-07-17T01:22:20.116Z,3.53
2018-07-17T01:23:20.357Z,1.43
2018-07-17T01:24:20.606Z,0.00
2018-07-17T01:25:20.839Z,0.00
2018-07-17T01:26:21.081Z,4.21
2018-07-17T01:27:21.320Z,14.25
2018-07-17T01:28:21.561Z,17.79
2018-07-17T01:29:21.802Z,33.48
2018-07-17T01:30:22.045Z,21.14
2018-07-17T01:31:22.283Z,37.66
2018-07-17T01:32:22.529Z,39.20
2018-07-17T01:33:22.766Z,30.40
2018-07-17T01:34:23.004Z,14.81
2018-07-17T01:35:23.247Z,9.08
2018-07-17T01:36:23.488Z,10.52
2018-07-17T01:37:23.730Z,14.83
2018-07-17T01:38:24.021Z,18.74
2018-07-17T01:39:24.212Z,18.17
2018-07-17T01:40:24.455Z,19.99
2018-07-17T01:41:24.693Z,25.73
2018-07-17T01:42:24.933Z,22.47
2018-07-17T01:43:25.174Z,21.12
2018-07-17T01:44:25.415Z,20.26
2018-07-17T01:45:25.713Z,13.86
2018-07-17T01:46:25.896Z,10.80
2018-07-17T01:47:26.138Z,11.66
2018-07-17T01:48:26.377Z,13.09
2018-07-17T01:49:26.621Z,14.05
2018-07-17T01:50:26.859Z,15.01
2018-07-17T01:51:27.098Z,14.15
2018-07-17T01:52:27.341Z,16.16
2018-07-17T01:53:27.580Z,15.01
2018-07-17T01:54:27.824Z,12.33
2018-07-17T01:55:28.066Z,10.80
2018-07-17T01:56:28.305Z,10.42
2018-07-17T01:57:28.545Z,10.42
2018-07-17T01:58:28.785Z,8.31
2018-07-17T01:59:29.025Z,7.36
2018-07-17T02:00:29.266Z,8.12
2018-07-17T02:01:29.507Z,9.08
2018-07-17T02:02:29.749Z,7.65
2018-07-17T02:03:29.989Z,7.26
2018-07-17T02:04:30.230Z,8.13
2018-07-17T02:05:30.469Z,9.08
2018-07-17T02:06:30.713Z,10.42
2018-07-17T02:07:30.952Z,12.14
2018-07-17T02:08:31.195Z,13.76
2018-07-17T02:09:31.434Z,13.48
2018-07-17T02:10:31.676Z,14.62
2018-07-17T02:11:31.918Z,15.01
2018-07-17T02:12:32.157Z,13.00
2018-07-17T02:13:32.399Z,11.95
2018-07-17T02:14:32.639Z,12.04
2018-07-17T02:15:32.880Z,12.24
2018-07-17T02:16:33.120Z,12.14
2018-07-17T02:17:33.362Z,13.95
2018-07-17T02:18:33.601Z,14.72
2018-07-17T02:19:33.843Z,13.38
2018-07-17T02:20:34.085Z,14.53
2018-07-17T02:21:34.333Z,15.20
2018-07-17T02:22:34.568Z,18.64
2018-07-17T02:23:34.810Z,19.69
2018-07-17T02:24:35.052Z,20.07
2018-07-17T02:25:35.292Z,23.61
2018-07-17T02:26:35.533Z,21.41
2018-07-17T02:27:35.776Z,19.40
2018-07-17T02:28:36.017Z,17.49
2018-07-17T02:29:36.257Z,14.81
2018-07-17T02:30:36.501Z,14.81
2018-07-17T02:31:36.740Z,15.19
2018-07-17T02:32:36.984Z,12.61
2018-07-17T02:33:37.221Z,16.43
2018-07-17T02:34:37.462Z,10.03
2018-07-17T02:35:37.703Z,15.19
2018-07-17T02:36:37.944Z,8.98
2018-07-17T02:37:38.186Z,11.37
2018-07-17T02:38:38.426Z,10.13
2018-07-17T02:39:38.665Z,10.31
2018-07-17T02:40:38.905Z,8.40
2018-07-17T02:41:39.146Z,8.22
2018-07-17T02:42:39.389Z,6.30
2018-07-17T02:43:39.628Z,5.44
2018-07-17T02:44:39.868Z,5.35
2018-07-17T02:45:40.114Z,5.63
2018-07-17T02:46:40.348Z,6.21
2018-07-17T02:47:40.588Z,6.02
2018-07-17T02:48:40.827Z,6.49
2018-07-17T02:49:41.068Z,5.63
2018-07-17T02:50:41.308Z,0.00
2018-07-17T02:51:41.550Z,0.00
2018-07-17T02:52:41.790Z,2.48
2018-07-17T02:53:42.031Z,9.08
2018-07-17T02:54:42.273Z,13.95
2018-07-17T02:55:42.512Z,13.86
2018-07-17T02:56:42.752Z,14.24
2018-07-17T02:57:42.991Z,14.43
2018-07-17T02:58:43.232Z,17.30
2018-07-17T02:59:43.478Z,16.44
2018-07-17T03:00:43.718Z,16.16
2018-07-17T03:01:43.958Z,15.67
2018-07-17T03:02:44.199Z,14.81
2018-07-17T03:03:44.496Z,14.91
2018-07-17T03:04:44.684Z,13.76
2018-07-17T03:05:44.920Z,14.05
2018-07-17T03:06:45.162Z,14.24
2018-07-17T03:07:45.403Z,14.24
2018-07-17T03:08:45.645Z,12.71
2018-07-17T03:09:45.884Z,13.67
2018-07-17T03:10:46.125Z,14.04
2018-07-17T03:11:46.366Z,16.53
2018-07-17T03:12:46.610Z,17.39
2018-07-17T03:13:46.851Z,15.19
2018-07-17T03:14:47.094Z,11.18
2018-07-17T03:15:47.333Z,5.44
2018-07-17T03:16:47.575Z,1.53
2018-07-17T03:17:47.816Z,0.00
2018-07-17T03:18:48.057Z,0.00
2018-07-17T03:19:48.298Z,0.00
2018-07-17T03:20:48.541Z,0.57
2018-07-17T03:21:48.781Z,3.82
2018-07-17T03:22:49.023Z,8.80
2018-07-17T03:23:49.262Z,10.71
2018-07-17T03:24:49.503Z,15.96
2018-07-17T03:25:49.746Z,20.07
2018-07-17T03:26:49.987Z,19.31
2018-07-17T03:27:50.228Z,21.41
2018-07-17T03:28:50.467Z,28.97
2018-07-17T03:29:50.707Z,26.37
2018-07-17T03:30:50.950Z,25.42
2018-07-17T03:31:51.192Z,21.78
2018-07-17T03:32:51.431Z,18.25
2018-07-17T03:33:51.672Z,17.58
2018-07-17T03:34:51.915Z,14.32
2018-07-17T03:35:52.158Z,17.00
2018-07-17T03:36:52.394Z,8.69
2018-07-17T03:37:52.637Z,5.54
2018-07-17T03:38:52.878Z,0.19
2018-07-17T03:39:53.116Z,0.00
2018-07-17T03:40:53.356Z,0.00
2018-07-17T03:41:53.601Z,0.00
2018-07-17T03:42:53.839Z,0.00
2018-07-17T03:43:54.079Z,0.00
2018-07-17T03:44:54.320Z,0.00
2018-07-17T03:45:54.561Z,0.00
2018-07-17T03:46:54.802Z,0.00
2018-07-17T03:47:55.045Z,0.00
2018-07-17T03:48:55.285Z,0.00
2018-07-17T03:49:55.525Z,8.22
2018-07-17T03:50:55.767Z,10.60
2018-07-17T03:51:56.008Z,9.55
2018-07-17T03:52:56.249Z,9.08
2018-07-17T03:53:56.491Z,8.89
2018-07-17T03:54:56.733Z,8.79
2018-07-17T03:55:56.975Z,7.07
2018-07-17T03:56:57.217Z,5.63
2018-07-17T03:57:57.457Z,4.68
2018-07-17T03:58:57.698Z,3.82
2018-07-17T03:59:57.939Z,1.81
2018-07-17T04:00:58.181Z,0.00
2018-07-17T04:01:58.423Z,0.00
2018-07-17T04:02:58.725Z,0.00
2018-07-17T04:03:58.909Z,0.00
2018-07-17T04:04:59.143Z,0.00
2018-07-17T04:05:59.387Z,0.00
2018-07-17T04:06:59.625Z,0.00
2018-07-17T04:07:59.867Z,0.00
2018-07-17T04:09:00.114Z,0.28
2018-07-17T04:10:00.355Z,1.72
2018-07-17T04:11:00.595Z,5.07
2018-07-17T04:12:00.836Z,6.69
2018-07-17T04:13:01.078Z,8.41
2018-07-17T04:14:01.319Z,10.13
2018-07-17T04:15:01.563Z,10.32
2018-07-17T04:16:01.804Z,11.85
2018-07-17T04:17:02.045Z,12.04
2018-07-17T04:18:02.287Z,11.57
2018-07-17T04:19:02.528Z,9.75
2018-07-17T04:20:02.769Z,8.41
2018-07-17T04:21:03.011Z,7.26
2018-07-17T04:22:03.252Z,7.74
2018-07-17T04:23:03.495Z,9.08
2018-07-17T04:24:03.735Z,10.99
2018-07-17T04:25:03.979Z,18.73
2018-07-17T04:26:04.221Z,23.12
2018-07-17T04:27:04.462Z,35.74
2018-07-17T04:28:04.704Z,36.31
2018-07-17T04:29:04.947Z,33.64
2018-07-17T04:30:05.188Z,33.06
2018-07-17T04:31:05.430Z,28.38
2018-07-17T04:32:05.672Z,25.99
2018-07-17T04:33:05.913Z,23.03
2018-07-17T04:34:06.154Z,21.21
2018-07-17T04:35:06.398Z,17.39
2018-07-17T04:36:06.636Z,15.00
2018-07-17T04:37:06.876Z,18.15
2018-07-17T04:38:07.118Z,23.79
2018-07-17T04:39:07.357Z,20.26
2018-07-17T04:40:07.598Z,16.14
2018-07-17T04:41:07.838Z,14.33
2018-07-17T04:42:08.087Z,12.13
2018-07-17T04:43:08.322Z,8.31
2018-07-17T04:44:08.577Z,6.02
2018-07-17T04:45:08.803Z,6.02
2018-07-17T04:46:09.046Z,5.54
2018-07-17T04:47:09.290Z,7.65
2018-07-17T04:48:09.532Z,7.74
2018-07-17T04:49:09.778Z,5.26
2018-07-17T04:50:10.013Z,3.82
2018-07-17T04:51:10.261Z,5.35
2018-07-17T04:52:10.491Z,7.26
2018-07-17T04:53:10.732Z,8.22
2018-07-17T04:54:10.972Z,7.55
2018-07-17T04:55:11.214Z,7.65
2018-07-17T04:56:11.456Z,7.36
2018-07-17T04:57:11.698Z,8.31
2018-07-17T04:58:11.936Z,8.80
2018-07-17T04:59:12.175Z,13.20
2018-07-17T05:00:12.416Z,17.31
2018-07-17T05:01:12.656Z,18.84
2018-07-17T05:02:12.897Z,23.53
2018-07-17T05:03:13.139Z,26.87
2018-07-17T05:04:13.379Z,29.46
2018-07-17T05:05:13.621Z,34.34
2018-07-17T05:06:13.867Z,37.99
2018-07-17T05:07:14.103Z,40.67
2018-07-17T05:08:14.345Z,41.53
2018-07-17T05:09:14.585Z,42.58
2018-07-17T05:10:14.829Z,43.35
2018-07-17T05:11:15.068Z,32.73
2018-07-17T05:12:15.308Z,30.15
2018-07-17T05:13:15.552Z,33.69
2018-07-17T05:14:15.789Z,40.77
2018-07-17T05:15:16.037Z,44.33
2018-07-17T05:16:16.292Z,47.97
2018-07-17T05:17:16.519Z,50.74
2018-07-17T05:18:16.763Z,53.33
2018-07-17T05:19:17.002Z,54.38
2018-07-17T05:20:17.252Z,56.30
2018-07-17T05:21:17.488Z,57.83
2018-07-17T05:22:17.730Z,59.17
2018-07-17T05:23:17.974Z,59.75
2018-07-17T05:24:18.214Z,61.37
2018-07-17T05:25:18.456Z,62.23
2018-07-17T05:26:18.699Z,64.09
2018-07-17T05:27:18.942Z,66.19
2018-07-17T05:28:19.184Z,66.58
2018-07-17T05:29:19.428Z,66.77
2018-07-17T05:30:19.671Z,67.63
2018-07-17T05:31:19.913Z,62.07
2018-07-17T05:32:20.159Z,69.20
2018-07-17T05:33:20.398Z,65.94
2018-07-17T05:34:20.642Z,70.73
2018-07-17T05:35:20.937Z,72.55
2018-07-17T05:36:21.178Z,76.23
2018-07-17T05:37:21.372Z,78.63
2018-07-17T05:38:21.615Z,80.74
2018-07-17T05:39:21.878Z,82.27
2018-07-17T05:40:22.103Z,86.68
2018-07-17T05:41:22.346Z,90.33
2018-07-17T05:42:22.590Z,87.78
2018-07-17T05:43:22.833Z,85.25
2018-07-17T05:44:23.078Z,88.31
2018-07-17T05:45:23.321Z,84.14
2018-07-17T05:46:23.570Z,87.40
2018-07-17T05:47:23.809Z,92.29
2018-07-17T05:48:24.053Z,98.62
2018-07-17T05:49:24.296Z,99.96
2018-07-17T05:50:24.539Z,99.10
2018-07-17T05:51:24.782Z,99.99
2018-07-17T05:52:25.028Z,99.99
2018-07-17T05:53:25.272Z,99.99
2018-07-17T05:54:25.516Z,99.99
2018-07-17T05:55:25.760Z,99.99
2018-07-17T05:56:26.004Z,99.99
2018-07-17T05:57:26.248Z,99.99
2018-07-17T05:58:26.492Z,99.99
2018-07-17T05:59:26.738Z,99.99
2018-07-17T06:00:26.981Z,99.99
2018-07-17T06:01:27.225Z,99.99
2018-07-17T06:02:27.472Z,99.99
2018-07-17T06:03:27.813Z,99.99
2018-07-17T06:04:27.958Z,99.99
2018-07-17T06:05:28.202Z,99.99
2018-07-17T06:06:28.448Z,99.99
2018-07-17T06:07:28.691Z,99.99
2018-07-17T06:08:28.934Z,99.99
2018-07-17T06:09:29.180Z,99.99
2018-07-17T06:10:29.425Z,99.99
2018-07-17T06:11:29.674Z,99.99
2018-07-17T06:12:29.916Z,99.99
2018-07-17T06:13:30.161Z,99.99
2018-07-17T06:14:30.403Z,99.99
2018-07-17T06:15:30.649Z,99.99
2018-07-17T06:16:30.895Z,99.99
2018-07-17T06:17:31.139Z,99.99
2018-07-17T06:18:31.383Z,99.99
2018-07-17T06:19:31.627Z,99.99
2018-07-17T06:20:31.873Z,99.99
2018-07-17T06:21:32.116Z,99.99
2018-07-17T06:22:32.359Z,99.99
2018-07-17T06:23:32.606Z,99.99
2018-07-17T06:24:32.848Z,99.99
2018-07-17T06:25:33.092Z,99.99
2018-07-17T06:26:33.338Z,99.99
2018-07-17T06:27:33.583Z,99.99
2018-07-17T06:28:33.829Z,99.99
2018-07-17T06:29:34.070Z,99.99
2018-07-17T06:30:34.316Z,99.99
2018-07-17T06:31:34.563Z,99.99
2018-07-17T06:32:34.810Z,99.99
2018-07-17T06:33:35.053Z,99.99
2018-07-17T06:34:35.296Z,99.99
2018-07-17T06:35:35.541Z,99.99
2018-07-17T06:36:35.786Z,99.99
2018-07-17T06:37:36.031Z,99.99
2018-07-17T06:38:36.276Z,99.99
2018-07-17T06:39:36.526Z,99.99
2018-07-17T06:40:36.769Z,99.99
2018-07-17T06:41:37.013Z,99.99
2018-07-17T06:42:37.258Z,99.99
2018-07-17T06:43:37.508Z,99.99
2018-07-17T06:44:37.752Z,99.99
2018-07-17T06:45:37.993Z,99.99
2018-07-17T06:46:38.239Z,99.99
2018-07-17T06:47:38.485Z,99.99
2018-07-17T06:48:38.731Z,99.99
2018-07-17T06:49:38.978Z,99.99
2018-07-17T06:50:39.309Z,99.99
2018-07-17T06:51:39.469Z,99.99
2018-07-17T06:52:39.714Z,99.99
2018-07-17T06:53:39.965Z,99.99
2018-07-17T06:54:40.209Z,99.99
2018-07-17T06:55:40.452Z,99.99
2018-07-17T06:56:40.700Z,99.99
2018-07-17T06:57:40.944Z,99.99
2018-07-17T06:58:41.192Z,99.99
2018-07-17T06:59:41.438Z,99.99
2018-07-17T07:00:41.685Z,99.99
2018-07-17T07:01:41.933Z,99.99
2018-07-17T07:02:42.178Z,99.99
2018-07-17T07:03:42.425Z,99.99
2018-07-17T07:04:42.672Z,99.99
2018-07-17T07:05:42.919Z,99.07
2018-07-17T07:06:43.167Z,99.40
2018-07-17T07:07:43.412Z,99.45
2018-07-17T07:08:43.658Z,98.73
2018-07-17T07:09:43.904Z,94.43
2018-07-17T07:10:44.151Z,95.35
2018-07-17T07:11:44.397Z,94.72
2018-07-17T07:12:44.643Z,95.30
2018-07-17T07:13:44.889Z,93.95
2018-07-17T07:14:45.135Z,94.34
2018-07-17T07:15:45.383Z,95.68
2018-07-17T07:16:45.630Z,94.14
2018-07-17T07:17:45.875Z,91.92
2018-07-17T07:18:46.124Z,90.52
2018-07-17T07:19:46.369Z,89.75
2018-07-17T07:20:46.615Z,90.61
2018-07-17T07:21:46.864Z,87.03
2018-07-17T07:22:47.110Z,83.59
2018-07-17T07:23:47.359Z,79.12
2018-07-17T07:24:47.607Z,76.97
2018-07-17T07:25:47.856Z,70.67
2018-07-17T07:26:48.104Z,62.65
2018-07-17T07:27:48.354Z,60.74
2018-07-17T07:28:48.600Z,59.33
2018-07-17T07:29:48.848Z,57.25
2018-07-17T07:30:49.153Z,56.70
2018-07-17T07:31:49.345Z,54.75
2018-07-17T07:32:49.593Z,53.55
2018-07-17T07:33:49.843Z,54.76
2018-07-17T07:34:50.090Z,54.83
2018-07-17T07:35:50.338Z,53.91
2018-07-17T07:36:50.589Z,52.55
2018-07-17T07:37:50.836Z,52.26
2018-07-17T07:38:51.086Z,50.73
2018-07-17T07:39:51.336Z,50.53
2018-07-17T07:40:51.588Z,50.73
2018-07-17T07:41:51.834Z,48.71
2018-07-17T07:42:52.166Z,48.63
2018-07-17T07:43:52.333Z,48.36
2018-07-17T07:44:52.585Z,47.22
2018-07-17T07:45:52.834Z,48.10
2018-07-17T07:46:53.084Z,47.14
2018-07-17T07:47:53.335Z,46.19
2018-07-17T07:48:53.589Z,44.04
2018-07-17T07:49:53.836Z,43.89
2018-07-17T07:50:54.087Z,44.06
2018-07-17T07:51:54.339Z,44.55
2018-07-17T07:52:54.589Z,44.78
2018-07-17T07:53:54.842Z,46.41
2018-07-17T07:54:55.102Z,47.29
2018-07-17T07:55:55.345Z,47.02
2018-07-17T07:56:55.597Z,46.34
2018-07-17T07:57:55.851Z,46.34
2018-07-17T07:58:56.100Z,45.80
2018-07-17T07:59:56.352Z,45.72
2018-07-17T08:00:56.604Z,44.06
2018-07-17T08:01:56.853Z,44.73
2018-07-17T08:02:57.105Z,44.84
2018-07-17T08:03:57.399Z,45.65
2018-07-17T08:04:57.611Z,44.30
2018-07-17T08:05:57.864Z,44.13
2018-07-17T08:06:58.119Z,42.43
2018-07-17T08:07:58.369Z,41.84
2018-07-17T08:08:58.623Z,41.47
2018-07-17T08:09:58.873Z,40.11
2018-07-17T08:10:59.126Z,40.09
2018-07-17T08:11:59.390Z,39.33
2018-07-17T08:12:59.633Z,39.37
2018-07-17T08:13:59.887Z,39.27
2018-07-17T08:15:00.142Z,39.14
2018-07-17T08:16:00.396Z,39.84
2018-07-17T08:17:00.650Z,37.92
2018-07-17T08:18:00.904Z,37.13
2018-07-17T08:19:01.159Z,37.44
2018-07-17T08:20:01.412Z,36.88
2018-07-17T08:21:01.666Z,36.69
2018-07-17T08:22:01.921Z,35.63
2018-07-17T08:23:02.175Z,36.02
2018-07-17T08:24:02.429Z,35.33
2018-07-17T08:25:02.684Z,36.80
2018-07-17T08:26:02.938Z,36.87
2018-07-17T08:27:03.194Z,36.00
2018-07-17T08:28:03.450Z,35.80
2018-07-17T08:29:03.701Z,35.80
2018-07-17T08:30:03.958Z,36.11
2018-07-17T08:31:04.211Z,36.10
2018-07-17T08:32:04.468Z,34.53
2018-07-17T08:33:04.723Z,35.80
2018-07-17T08:34:04.976Z,35.90
2018-07-17T08:35:05.233Z,36.02
2018-07-17T08:36:05.488Z,35.72
2018-07-17T08:37:05.742Z,35.80
2018-07-17T08:38:05.998Z,37.13
2018-07-17T08:39:06.254Z,35.69
2018-07-17T08:40:06.509Z,36.30
2018-07-17T08:41:06.764Z,35.82
2018-07-17T08:42:07.019Z,35.44
2018-07-17T08:43:07.356Z,36.61
2018-07-17T08:44:07.531Z,35.43
2018-07-17T08:45:07.787Z,35.99
2018-07-17T08:46:08.104Z,37.30
2018-07-17T08:47:08.299Z,38.23
2018-07-17T08:48:08.555Z,37.24
2018-07-17T08:49:08.825Z,36.59
2018-07-17T08:50:09.067Z,35.33
2018-07-17T08:51:09.324Z,34.86
2018-07-17T08:52:09.580Z,34.46
2018-07-17T08:53:09.836Z,34.58
2018-07-17T08:54:10.093Z,34.01
2018-07-17T08:55:10.349Z,34.28
2018-07-17T08:56:10.607Z,34.58
2018-07-17T08:57:10.859Z,33.22
2018-07-17T08:58:11.117Z,32.84
2018-07-17T08:59:11.374Z,32.26
2018-07-17T09:00:11.634Z,32.35
2018-07-17T09:01:11.886Z,32.24
2018-07-17T09:02:12.141Z,31.99
2018-07-17T09:03:12.398Z,31.90
2018-07-17T09:04:12.656Z,33.13
2018-07-17T09:05:12.912Z,33.20
2018-07-17T09:06:13.171Z,35.33
2018-07-17T09:07:13.430Z,37.80
2018-07-17T09:08:13.684Z,39.00
2018-07-17T09:09:13.940Z,37.24
2018-07-17T09:10:14.197Z,36.88
2018-07-17T09:11:14.454Z,35.25
2018-07-17T09:12:14.711Z,34.28
2018-07-17T09:13:14.981Z,34.49
2018-07-17T09:14:15.223Z,33.62
2018-07-17T09:15:15.481Z,30.99
2018-07-17T09:16:15.737Z,32.09
2018-07-17T09:17:15.994Z,31.73
2018-07-17T09:18:16.253Z,31.01
2018-07-17T09:19:16.509Z,30.74
2018-07-17T09:20:16.766Z,30.91
2018-07-17T09:21:17.070Z,30.91
2018-07-17T09:22:17.281Z,30.41
2018-07-17T09:23:17.538Z,31.47
2018-07-17T09:24:17.799Z,31.98
2018-07-17T09:25:18.054Z,31.29
2018-07-17T09:26:18.318Z,30.69
2018-07-17T09:27:18.571Z,31.20
2018-07-17T09:28:18.900Z,31.27
2018-07-17T09:29:19.083Z,31.96
2018-07-17T09:30:19.341Z,31.48
2018-07-17T09:31:19.598Z,30.02
2018-07-17T09:32:19.857Z,31.22
2018-07-17T09:33:20.117Z,29.55
2018-07-17T09:34:20.373Z,28.56
2018-07-17T09:35:20.632Z,29.14
2018-07-17T09:36:20.889Z,29.75
2018-07-17T09:37:21.147Z,29.46
2018-07-17T09:38:21.407Z,28.66
2018-07-17T09:39:21.664Z,28.58
2018-07-17T09:40:21.923Z,28.67
2018-07-17T09:41:22.180Z,31.04
2018-07-17T09:42:22.440Z,31.35
2018-07-17T09:43:22.698Z,31.93
2018-07-17T09:44:23.022Z,32.03
2018-07-17T09:45:23.215Z,32.97
2018-07-17T09:46:23.478Z,31.59
2018-07-17T09:47:23.732Z,33.44
2018-07-17T09:48:23.989Z,33.48
2018-07-17T09:49:24.247Z,33.44
2018-07-17T09:50:24.507Z,32.32
2018-07-17T09:51:24.763Z,31.85
2018-07-17T09:52:25.021Z,30.10
2018-07-17T09:53:25.278Z,28.28
2018-07-17T09:54:25.580Z,27.60
2018-07-17T09:55:25.796Z,26.61
2018-07-17T09:56:26.055Z,28.66
2018-07-17T09:57:26.316Z,28.76
2018-07-17T09:58:26.571Z,28.39
2018-07-17T09:59:26.828Z,27.22
2018-07-17T10:00:27.087Z,27.03
2018-07-17T10:01:27.345Z,27.91
2018-07-17T10:02:27.604Z,28.48
2018-07-17T10:03:27.863Z,30.31
2018-07-17T10:04:28.122Z,31.42
2018-07-17T10:05:28.379Z,29.17
2018-07-17T10:06:28.687Z,30.22
2018-07-17T10:07:28.897Z,29.43
2018-07-17T10:08:29.156Z,29.52
2018-07-17T10:09:29.475Z,28.58
2018-07-17T10:10:29.674Z,28.28
2018-07-17T10:11:29.932Z,28.58
2018-07-17T10:12:30.192Z,28.61
2018-07-17T10:13:30.451Z,28.83
2018-07-17T10:14:30.763Z,28.78
2018-07-17T10:15:30.968Z,26.71
2018-07-17T10:16:31.227Z,26.25
2018-07-17T10:17:31.486Z,28.74
2018-07-17T10:18:31.744Z,27.28
2018-07-17T10:19:32.004Z,28.35
2018-07-17T10:20:32.264Z,25.96
2018-07-17T10:21:32.523Z,23.68
2018-07-17T10:22:32.782Z,24.26
2018-07-17T10:23:33.038Z,25.52
2018-07-17T10:24:33.299Z,26.28
2018-07-17T10:25:33.559Z,26.71
2018-07-17T10:26:33.838Z,26.64
2018-07-17T10:27:34.075Z,25.27
2018-07-17T10:28:34.332Z,25.68
2018-07-17T10:29:34.594Z,24.40
2018-07-17T10:30:34.854Z,25.39
2018-07-17T10:31:35.112Z,24.19
2018-07-17T10:32:35.370Z,25.07
2018-07-17T10:33:35.629Z,25.56
2018-07-17T10:34:35.891Z,25.04
2018-07-17T10:35:36.147Z,25.49
2018-07-17T10:36:36.406Z,25.82
2018-07-17T10:37:36.665Z,26.41
2018-07-17T10:38:36.950Z,26.41
2018-07-17T10:39:37.182Z,26.53
2018-07-17T10:40:37.442Z,25.73
2018-07-17T10:41:37.701Z,26.81
2018-07-17T10:42:37.959Z,28.12
2018-07-17T10:43:38.216Z,27.47
2018-07-17T10:44:38.474Z,26.92
2018-07-17T10:45:38.733Z,26.55
2018-07-17T10:46:38.991Z,25.40
2018-07-17T10:47:39.294Z,24.33
2018-07-17T10:48:39.508Z,22.88
2018-07-17T10:49:39.766Z,22.50
2018-07-17T10:50:40.026Z,21.11
2018-07-17T10:51:40.283Z,22.07
2018-07-17T10:52:40.542Z,24.46
2018-07-17T10:53:40.803Z,25.34
2018-07-17T10:54:41.060Z,24.34
2018-07-17T10:55:41.320Z,25.40
2018-07-17T10:56:41.576Z,22.85
2018-07-17T10:57:41.836Z,22.94
2018-07-17T10:58:42.095Z,20.90
2018-07-17T10:59:42.356Z,20.55
2018-07-17T11:00:42.613Z,19.58
2018-07-17T11:01:42.871Z,18.12
2018-07-17T11:02:43.130Z,18.67
2018-07-17T11:03:43.390Z,21.03
2018-07-17T11:04:43.649Z,19.98
2018-07-17T11:05:43.908Z,20.85
2018-07-17T11:06:44.167Z,20.17
2018-07-17T11:07:44.428Z,20.48
2018-07-17T11:08:44.686Z,20.10
2018-07-17T11:09:44.942Z,17.74
2018-07-17T11:10:45.200Z,17.37
2018-07-17T11:11:45.461Z,17.58
2018-07-17T11:12:45.718Z,17.30
2018-07-17T11:13:45.979Z,17.40
2018-07-17T11:14:46.236Z,16.91
2018-07-17T11:15:46.495Z,17.09
2018-07-17T11:16:46.754Z,17.97
2018-07-17T11:17:47.013Z,18.17
2018-07-17T11:18:47.272Z,18.48
2018-07-17T11:19:47.528Z,18.75
2018-07-17T11:20:47.788Z,18.73
2018-07-17T11:21:48.051Z,19.32
2018-07-17T11:22:48.306Z,17.83
2018-07-17T11:23:48.565Z,18.04
2018-07-17T11:24:48.821Z,17.28
2018-07-17T11:25:49.082Z,17.65
2018-07-17T11:26:49.341Z,17.66
2018-07-17T11:27:49.599Z,17.75
2018-07-17T11:28:49.858Z,16.57
2018-07-17T11:29:50.131Z,16.76
2018-07-17T11:30:50.375Z,17.57
2018-07-17T11:31:50.639Z,17.38
2018-07-17T11:32:50.891Z,17.08
2018-07-17T11:33:51.150Z,15.38
2018-07-17T11:34:51.412Z,16.17
2018-07-17T11:35:51.670Z,16.58
2018-07-17T11:36:51.926Z,15.88
2018-07-17T11:37:52.184Z,16.77
2018-07-17T11:38:52.442Z,17.38
2018-07-17T11:39:52.700Z,17.59
2018-07-17T11:40:52.961Z,17.47
2018-07-17T11:41:53.220Z,17.97
2018-07-17T11:42:53.478Z,17.96
2018-07-17T11:43:53.738Z,17.70
2018-07-17T11:44:53.996Z,18.67
2018-07-17T11:45:54.255Z,18.48
2018-07-17T11:46:54.515Z,18.48
2018-07-17T11:47:54.871Z,17.86
2018-07-17T11:48:55.033Z,18.65
2018-07-17T11:49:55.291Z,18.94
2018-07-17T11:50:55.549Z,18.76
2018-07-17T11:51:55.808Z,18.39
2018-07-17T11:52:56.067Z,18.20
2018-07-17T11:53:56.324Z,17.42
2018-07-17T11:54:56.584Z,17.32
2018-07-17T11:55:56.843Z,18.68
2018-07-17T11:56:57.102Z,19.03
2018-07-17T11:57:57.360Z,19.80
2018-07-17T11:58:57.710Z,20.27
2018-07-17T11:59:57.879Z,21.73
2018-07-17T12:00:58.139Z,21.83
2018-07-17T12:01:58.400Z,21.83
2018-07-17T12:02:58.655Z,22.41
2018-07-17T12:03:58.914Z,23.06
2018-07-17T12:04:59.172Z,23.74
2018-07-17T12:05:59.522Z,24.64
2018-07-17T12:06:59.689Z,24.80
2018-07-17T12:07:59.945Z,25.84
2018-07-17T12:09:00.200Z,25.56
2018-07-17T12:10:00.457Z,25.88
2018-07-17T12:11:00.713Z,24.04
2018-07-17T12:12:00.970Z,23.75
2018-07-17T12:13:01.240Z,23.11
2018-07-17T12:14:01.487Z,22.70
2018-07-17T12:15:01.745Z,24.33
2018-07-17T12:16:02.000Z,24.85
2018-07-17T12:17:02.257Z,23.88
2018-07-17T12:18:02.519Z,24.93
2018-07-17T12:19:02.773Z,25.87
2018-07-17T12:20:03.139Z,26.68
2018-07-17T12:21:03.287Z,24.07
2018-07-17T12:22:03.541Z,23.71
2018-07-17T12:23:03.797Z,23.25
2018-07-17T12:24:04.053Z,22.63
2018-07-17T12:25:04.311Z,21.55
2018-07-17T12:26:04.566Z,22.94
2018-07-17T12:27:04.823Z,21.94
2018-07-17T12:28:05.098Z,22.15
2018-07-17T12:29:05.335Z,22.85
2018-07-17T12:30:05.591Z,22.75
2018-07-17T12:31:05.849Z,23.13
2018-07-17T12:32:06.106Z,23.22
2018-07-17T12:33:06.363Z,24.32
2018-07-17T12:34:06.618Z,23.41
2018-07-17T12:35:06.875Z,24.36
2018-07-17T12:36:07.130Z,25.71
2018-07-17T12:37:07.386Z,25.34
2018-07-17T12:38:07.644Z,24.68
2018-07-17T12:39:07.900Z,25.52
2018-07-17T12:40:08.159Z,26.86
2018-07-17T12:41:08.937Z,25.99
2018-07-17T12:42:08.773Z,26.84
2018-07-17T12:43:09.029Z,28.19
2018-07-17T12:44:09.287Z,28.18
2018-07-17T12:45:09.540Z,27.97
2018-07-17T12:46:09.795Z,29.14
2018-07-17T12:47:10.052Z,29.17
2018-07-17T12:48:10.306Z,28.41
2018-07-17T12:49:10.563Z,26.97
2018-07-17T12:50:10.817Z,28.12
2018-07-17T12:51:11.074Z,27.11
2018-07-17T12:52:11.329Z,27.69
2018-07-17T12:53:11.583Z,28.45
2018-07-17T12:54:11.848Z,29.11
2018-07-17T12:55:12.094Z,29.08
2018-07-17T12:56:12.353Z,30.06
2018-07-17T12:57:12.605Z,30.55
2018-07-17T12:58:12.862Z,30.44
2018-07-17T12:59:13.114Z,30.44